sensor_id;sensor_type;location;lat;lon;timestamp;P1;durP1;ratioP1;P2;durP2;ratioP2
62798;SDS011;48842;51.046;13.796;2023-03-02T00:00:52;38.42;;;21.83;;
62798;SDS011;48842;51.046;13.796;2023-03-02T00:03:21;32.90;;;21.40;;
62798;SDS011;48842;51.046;13.796;2023-03-02T00:05:46;29.40;;;21.20;;
62798;SDS011;48842;51.046;13.796;2023-03-02T00:08:12;33.90;;;21.50;;
62798;SDS011;48842;51.046;13.796;2023-03-02T00:10:42;46.95;;;20.60;;
62798;SDS011;48842;51.046;13.796;2023-03-02T00:13:08;30.50;;;20.45;;
62798;SDS011;48842;51.046;13.796;2023-03-02T00:15:35;34.22;;;21.77;;
62798;SDS011;48842;51.046;13.796;2023-03-02T00:18:00;28.47;;;21.10;;
62798;SDS011;48842;51.046;13.796;2023-03-02T00:20:26;34.13;;;20.57;;
62798;SDS011;48842;51.046;13.796;2023-03-02T00:22:51;29.90;;;20.10;;
62798;SDS011;48842;51.046;13.796;2023-03-02T00:25:17;30.20;;;20.97;;
62798;SDS011;48842;51.046;13.796;2023-03-02T00:27:42;30.03;;;20.83;;
62798;SDS011;48842;51.046;13.796;2023-03-02T00:30:09;29.13;;;19.67;;
62798;SDS011;48842;51.046;13.796;2023-03-02T00:32:35;29.42;;;19.77;;
62798;SDS011;48842;51.046;13.796;2023-03-02T00:35:01;30.27;;;20.20;;
62798;SDS011;48842;51.046;13.796;2023-03-02T00:37:26;33.63;;;21.40;;
62798;SDS011;48842;51.046;13.796;2023-03-02T00:39:51;31.80;;;20.37;;
62798;SDS011;48842;51.046;13.796;2023-03-02T00:42:17;36.03;;;19.60;;
62798;SDS011;48842;51.046;13.796;2023-03-02T00:44:43;27.13;;;18.47;;
62798;SDS011;48842;51.046;13.796;2023-03-02T00:47:08;30.87;;;20.73;;
62798;SDS011;48842;51.046;13.796;2023-03-02T00:49:33;33.10;;;20.90;;
62798;SDS011;48842;51.046;13.796;2023-03-02T00:51:58;31.83;;;21.07;;
62798;SDS011;48842;51.046;13.796;2023-03-02T00:54:24;29.30;;;20.00;;
62798;SDS011;48842;51.046;13.796;2023-03-02T00:56:49;33.47;;;21.23;;
62798;SDS011;48842;51.046;13.796;2023-03-02T00:59:15;28.50;;;19.60;;
62798;SDS011;48842;51.046;13.796;2023-03-02T01:01:56;35.17;;;21.27;;
62798;SDS011;48842;51.046;13.796;2023-03-02T01:04:26;28.98;;;19.40;;
62798;SDS011;48842;51.046;13.796;2023-03-02T01:06:53;30.48;;;19.63;;
62798;SDS011;48842;51.046;13.796;2023-03-02T01:09:19;27.70;;;19.07;;
62798;SDS011;48842;51.046;13.796;2023-03-02T01:11:44;27.17;;;18.50;;
62798;SDS011;48842;51.046;13.796;2023-03-02T01:14:09;29.13;;;18.60;;
62798;SDS011;48842;51.046;13.796;2023-03-02T01:16:35;29.20;;;19.70;;
62798;SDS011;48842;51.046;13.796;2023-03-02T01:19:01;30.10;;;19.98;;
62798;SDS011;48842;51.046;13.796;2023-03-02T01:21:26;30.07;;;18.43;;
62798;SDS011;48842;51.046;13.796;2023-03-02T01:23:51;28.13;;;19.07;;
62798;SDS011;48842;51.046;13.796;2023-03-02T01:26:17;32.77;;;20.40;;
62798;SDS011;48842;51.046;13.796;2023-03-02T01:28:42;28.33;;;19.37;;
62798;SDS011;48842;51.046;13.796;2023-03-02T01:31:07;31.43;;;19.37;;
62798;SDS011;48842;51.046;13.796;2023-03-02T01:33:32;29.33;;;20.80;;
62798;SDS011;48842;51.046;13.796;2023-03-02T01:35:58;30.27;;;19.83;;
62798;SDS011;48842;51.046;13.796;2023-03-02T01:38:23;25.53;;;18.80;;
62798;SDS011;48842;51.046;13.796;2023-03-02T01:40:48;27.50;;;18.97;;
62798;SDS011;48842;51.046;13.796;2023-03-02T01:43:14;28.17;;;19.60;;
62798;SDS011;48842;51.046;13.796;2023-03-02T01:48:21;24.73;;;17.70;;
62798;SDS011;48842;51.046;13.796;2023-03-02T01:50:50;29.52;;;18.42;;
62798;SDS011;48842;51.046;13.796;2023-03-02T01:53:17;28.52;;;19.30;;
62798;SDS011;48842;51.046;13.796;2023-03-02T01:55:43;27.00;;;18.83;;
62798;SDS011;48842;51.046;13.796;2023-03-02T01:58:09;29.45;;;19.67;;
62798;SDS011;48842;51.046;13.796;2023-03-02T02:00:37;27.98;;;18.60;;
62798;SDS011;48842;51.046;13.796;2023-03-02T02:03:05;27.58;;;18.75;;
62798;SDS011;48842;51.046;13.796;2023-03-02T02:05:35;30.55;;;17.77;;
62798;SDS011;48842;51.046;13.796;2023-03-02T02:08:03;31.15;;;18.92;;
62798;SDS011;48842;51.046;13.796;2023-03-02T02:10:28;29.93;;;19.27;;
62798;SDS011;48842;51.046;13.796;2023-03-02T02:12:54;27.00;;;18.35;;
62798;SDS011;48842;51.046;13.796;2023-03-02T02:15:20;25.87;;;17.50;;
62798;SDS011;48842;51.046;13.796;2023-03-02T02:17:45;26.27;;;17.30;;
62798;SDS011;48842;51.046;13.796;2023-03-02T02:20:20;34.30;;;17.57;;
62798;SDS011;48842;51.046;13.796;2023-03-02T02:28:29;25.02;;;17.58;;
62798;SDS011;48842;51.046;13.796;2023-03-02T02:31:03;30.73;;;17.65;;
62798;SDS011;48842;51.046;13.796;2023-03-02T02:33:32;30.80;;;18.15;;
62798;SDS011;48842;51.046;13.796;2023-03-02T02:36:02;25.50;;;17.63;;
62798;SDS011;48842;51.046;13.796;2023-03-02T02:38:31;24.00;;;17.92;;
62798;SDS011;48842;51.046;13.796;2023-03-02T02:40:59;28.10;;;17.27;;
62798;SDS011;48842;51.046;13.796;2023-03-02T02:43:27;28.67;;;18.13;;
62798;SDS011;48842;51.046;13.796;2023-03-02T02:45:55;27.15;;;18.85;;
62798;SDS011;48842;51.046;13.796;2023-03-02T02:48:22;27.08;;;18.00;;
62798;SDS011;48842;51.046;13.796;2023-03-02T02:50:50;30.15;;;18.23;;
62798;SDS011;48842;51.046;13.796;2023-03-02T02:53:27;24.90;;;17.83;;
62798;SDS011;48842;51.046;13.796;2023-03-02T02:55:58;26.55;;;17.65;;
62798;SDS011;48842;51.046;13.796;2023-03-02T02:58:45;26.88;;;18.17;;
62798;SDS011;48842;51.046;13.796;2023-03-02T03:01:16;27.88;;;18.05;;
62798;SDS011;48842;51.046;13.796;2023-03-02T03:03:44;30.23;;;17.92;;
62798;SDS011;48842;51.046;13.796;2023-03-02T03:06:21;26.75;;;18.30;;
62798;SDS011;48842;51.046;13.796;2023-03-02T03:08:53;26.58;;;18.50;;
62798;SDS011;48842;51.046;13.796;2023-03-02T03:11:22;30.90;;;18.00;;
62798;SDS011;48842;51.046;13.796;2023-03-02T03:13:55;25.90;;;17.27;;
62798;SDS011;48842;51.046;13.796;2023-03-02T03:16:25;27.52;;;18.08;;
62798;SDS011;48842;51.046;13.796;2023-03-02T03:18:52;29.38;;;19.48;;
62798;SDS011;48842;51.046;13.796;2023-03-02T03:21:19;25.98;;;17.63;;
62798;SDS011;48842;51.046;13.796;2023-03-02T03:23:44;31.33;;;18.97;;
62798;SDS011;48842;51.046;13.796;2023-03-02T03:26:09;27.40;;;19.10;;
62798;SDS011;48842;51.046;13.796;2023-03-02T03:28:35;26.47;;;17.30;;
62798;SDS011;48842;51.046;13.796;2023-03-02T03:31:00;25.10;;;17.67;;
62798;SDS011;48842;51.046;13.796;2023-03-02T03:33:26;28.77;;;17.50;;
62798;SDS011;48842;51.046;13.796;2023-03-02T03:35:51;27.73;;;17.53;;
62798;SDS011;48842;51.046;13.796;2023-03-02T03:38:17;23.67;;;17.57;;
62798;SDS011;48842;51.046;13.796;2023-03-02T03:40:42;28.17;;;17.87;;
62798;SDS011;48842;51.046;13.796;2023-03-02T03:43:07;24.83;;;17.83;;
62798;SDS011;48842;51.046;13.796;2023-03-02T03:45:33;26.80;;;16.67;;
62798;SDS011;48842;51.046;13.796;2023-03-02T03:47:59;30.37;;;17.60;;
62798;SDS011;48842;51.046;13.796;2023-03-02T03:50:24;28.40;;;17.90;;
62798;SDS011;48842;51.046;13.796;2023-03-02T03:52:49;25.07;;;17.03;;
62798;SDS011;48842;51.046;13.796;2023-03-02T03:55:15;26.53;;;17.77;;
62798;SDS011;48842;51.046;13.796;2023-03-02T03:57:41;25.23;;;17.10;;
62798;SDS011;48842;51.046;13.796;2023-03-02T04:00:07;28.10;;;18.97;;
62798;SDS011;48842;51.046;13.796;2023-03-02T04:02:35;26.58;;;17.77;;
62798;SDS011;48842;51.046;13.796;2023-03-02T04:05:01;30.73;;;19.05;;
62798;SDS011;48842;51.046;13.796;2023-03-02T04:07:33;26.05;;;17.60;;
62798;SDS011;48842;51.046;13.796;2023-03-02T04:09:59;28.58;;;17.90;;
62798;SDS011;48842;51.046;13.796;2023-03-02T04:12:29;27.80;;;18.80;;
62798;SDS011;48842;51.046;13.796;2023-03-02T04:14:55;35.60;;;19.20;;
62798;SDS011;48842;51.046;13.796;2023-03-02T04:17:20;28.80;;;18.60;;
62798;SDS011;48842;51.046;13.796;2023-03-02T04:19:45;31.03;;;19.67;;
62798;SDS011;48842;51.046;13.796;2023-03-02T04:22:11;36.13;;;18.43;;
62798;SDS011;48842;51.046;13.796;2023-03-02T04:24:36;31.70;;;17.37;;
62798;SDS011;48842;51.046;13.796;2023-03-02T04:27:02;27.20;;;17.23;;
62798;SDS011;48842;51.046;13.796;2023-03-02T04:29:27;24.17;;;17.40;;
62798;SDS011;48842;51.046;13.796;2023-03-02T04:31:53;30.20;;;19.60;;
62798;SDS011;48842;51.046;13.796;2023-03-02T04:34:18;26.20;;;16.90;;
62798;SDS011;48842;51.046;13.796;2023-03-02T04:36:43;29.60;;;17.70;;
62798;SDS011;48842;51.046;13.796;2023-03-02T04:39:09;25.60;;;18.07;;
62798;SDS011;48842;51.046;13.796;2023-03-02T04:41:36;27.40;;;18.33;;
62798;SDS011;48842;51.046;13.796;2023-03-02T04:44:01;24.80;;;17.37;;
62798;SDS011;48842;51.046;13.796;2023-03-02T04:46:27;29.93;;;17.17;;
62798;SDS011;48842;51.046;13.796;2023-03-02T04:48:52;33.07;;;18.30;;
62798;SDS011;48842;51.046;13.796;2023-03-02T04:51:19;25.90;;;18.00;;
62798;SDS011;48842;51.046;13.796;2023-03-02T04:53:50;27.52;;;17.85;;
62798;SDS011;48842;51.046;13.796;2023-03-02T04:56:20;31.50;;;18.65;;
62798;SDS011;48842;51.046;13.796;2023-03-02T04:58:45;37.97;;;19.60;;
62798;SDS011;48842;51.046;13.796;2023-03-02T05:01:11;33.80;;;19.40;;
62798;SDS011;48842;51.046;13.796;2023-03-02T05:03:37;29.10;;;18.15;;
62798;SDS011;48842;51.046;13.796;2023-03-02T05:06:02;31.93;;;18.40;;
62798;SDS011;48842;51.046;13.796;2023-03-02T05:08:28;31.03;;;19.30;;
62798;SDS011;48842;51.046;13.796;2023-03-02T05:10:54;35.45;;;20.80;;
62798;SDS011;48842;51.046;13.796;2023-03-02T05:13:19;30.27;;;18.37;;
62798;SDS011;48842;51.046;13.796;2023-03-02T05:15:45;29.77;;;20.30;;
62798;SDS011;48842;51.046;13.796;2023-03-02T05:18:10;31.03;;;20.20;;
62798;SDS011;48842;51.046;13.796;2023-03-02T05:20:36;31.60;;;20.33;;
62798;SDS011;48842;51.046;13.796;2023-03-02T05:23:03;29.53;;;19.83;;
62798;SDS011;48842;51.046;13.796;2023-03-02T05:25:31;30.85;;;21.10;;
62798;SDS011;48842;51.046;13.796;2023-03-02T05:27:59;30.10;;;20.27;;
62798;SDS011;48842;51.046;13.796;2023-03-02T05:30:25;32.78;;;19.30;;
62798;SDS011;48842;51.046;13.796;2023-03-02T05:32:51;32.35;;;20.98;;
62798;SDS011;48842;51.046;13.796;2023-03-02T05:35:18;29.77;;;19.30;;
62798;SDS011;48842;51.046;13.796;2023-03-02T05:37:44;39.50;;;19.70;;
62798;SDS011;48842;51.046;13.796;2023-03-02T05:40:13;29.70;;;19.00;;
62798;SDS011;48842;51.046;13.796;2023-03-02T05:42:41;27.52;;;18.45;;
62798;SDS011;48842;51.046;13.796;2023-03-02T05:45:07;30.83;;;20.63;;
62798;SDS011;48842;51.046;13.796;2023-03-02T05:47:37;29.35;;;19.63;;
62798;SDS011;48842;51.046;13.796;2023-03-02T05:50:02;35.23;;;19.17;;
62798;SDS011;48842;51.046;13.796;2023-03-02T05:52:28;27.60;;;18.37;;
62798;SDS011;48842;51.046;13.796;2023-03-02T05:54:53;31.93;;;21.23;;
62798;SDS011;48842;51.046;13.796;2023-03-02T05:57:18;33.33;;;19.87;;
62798;SDS011;48842;51.046;13.796;2023-03-02T05:59:44;36.17;;;20.23;;
62798;SDS011;48842;51.046;13.796;2023-03-02T06:02:10;28.33;;;18.85;;
62798;SDS011;48842;51.046;13.796;2023-03-02T06:04:36;33.37;;;20.07;;
62798;SDS011;48842;51.046;13.796;2023-03-02T06:07:06;30.90;;;19.60;;
62798;SDS011;48842;51.046;13.796;2023-03-02T06:09:32;32.67;;;20.80;;
62798;SDS011;48842;51.046;13.796;2023-03-02T06:11:57;31.10;;;20.00;;
62798;SDS011;48842;51.046;13.796;2023-03-02T06:14:22;36.97;;;19.77;;
62798;SDS011;48842;51.046;13.796;2023-03-02T06:16:47;31.50;;;19.60;;
62798;SDS011;48842;51.046;13.796;2023-03-02T06:19:13;40.50;;;21.40;;
62798;SDS011;48842;51.046;13.796;2023-03-02T06:21:38;32.97;;;21.67;;
62798;SDS011;48842;51.046;13.796;2023-03-02T06:24:03;30.30;;;20.30;;
62798;SDS011;48842;51.046;13.796;2023-03-02T06:26:28;34.80;;;21.40;;
62798;SDS011;48842;51.046;13.796;2023-03-02T06:28:54;38.30;;;22.53;;
62798;SDS011;48842;51.046;13.796;2023-03-02T06:31:19;36.67;;;22.57;;
62798;SDS011;48842;51.046;13.796;2023-03-02T06:33:45;36.23;;;20.73;;
62798;SDS011;48842;51.046;13.796;2023-03-02T06:36:10;34.10;;;20.67;;
62798;SDS011;48842;51.046;13.796;2023-03-02T06:38:36;30.70;;;21.50;;
62798;SDS011;48842;51.046;13.796;2023-03-02T06:41:01;34.30;;;21.90;;
62798;SDS011;48842;51.046;13.796;2023-03-02T06:43:26;36.70;;;22.67;;
62798;SDS011;48842;51.046;13.796;2023-03-02T06:45:52;31.67;;;19.07;;
62798;SDS011;48842;51.046;13.796;2023-03-02T06:48:17;36.00;;;21.87;;
62798;SDS011;48842;51.046;13.796;2023-03-02T06:50:42;31.30;;;20.20;;
62798;SDS011;48842;51.046;13.796;2023-03-02T06:53:07;30.30;;;20.87;;
62798;SDS011;48842;51.046;13.796;2023-03-02T06:55:33;31.20;;;20.53;;
62798;SDS011;48842;51.046;13.796;2023-03-02T06:57:58;31.23;;;20.97;;
62798;SDS011;48842;51.046;13.796;2023-03-02T07:00:23;29.00;;;20.03;;
62798;SDS011;48842;51.046;13.796;2023-03-02T07:02:51;30.48;;;20.25;;
62798;SDS011;48842;51.046;13.796;2023-03-02T07:05:16;31.13;;;19.43;;
62798;SDS011;48842;51.046;13.796;2023-03-02T07:07:42;29.23;;;19.70;;
62798;SDS011;48842;51.046;13.796;2023-03-02T07:10:08;30.20;;;19.23;;
62798;SDS011;48842;51.046;13.796;2023-03-02T07:12:34;28.92;;;19.70;;
62798;SDS011;48842;51.046;13.796;2023-03-02T07:15:00;32.33;;;18.50;;
62798;SDS011;48842;51.046;13.796;2023-03-02T07:17:25;29.37;;;19.27;;
62798;SDS011;48842;51.046;13.796;2023-03-02T07:19:50;30.70;;;18.10;;
62798;SDS011;48842;51.046;13.796;2023-03-02T07:22:15;31.40;;;20.77;;
62798;SDS011;48842;51.046;13.796;2023-03-02T07:24:41;28.27;;;19.43;;
62798;SDS011;48842;51.046;13.796;2023-03-02T07:27:06;29.47;;;19.83;;
62798;SDS011;48842;51.046;13.796;2023-03-02T07:29:31;32.00;;;19.53;;
62798;SDS011;48842;51.046;13.796;2023-03-02T07:31:56;34.27;;;19.37;;
62798;SDS011;48842;51.046;13.796;2023-03-02T07:34:24;28.15;;;18.98;;
62798;SDS011;48842;51.046;13.796;2023-03-02T07:36:50;28.53;;;20.73;;
62798;SDS011;48842;51.046;13.796;2023-03-02T07:39:16;28.97;;;19.07;;
62798;SDS011;48842;51.046;13.796;2023-03-02T07:41:42;30.57;;;20.53;;
62798;SDS011;48842;51.046;13.796;2023-03-02T07:44:07;33.60;;;22.23;;
62798;SDS011;48842;51.046;13.796;2023-03-02T07:46:32;31.33;;;20.90;;
62798;SDS011;48842;51.046;13.796;2023-03-02T07:48:57;39.00;;;21.03;;
62798;SDS011;48842;51.046;13.796;2023-03-02T07:51:23;32.43;;;21.03;;
62798;SDS011;48842;51.046;13.796;2023-03-02T07:53:48;38.20;;;22.43;;
62798;SDS011;48842;51.046;13.796;2023-03-02T07:56:14;34.17;;;21.47;;
62798;SDS011;48842;51.046;13.796;2023-03-02T07:58:39;35.47;;;23.70;;
62798;SDS011;48842;51.046;13.796;2023-03-02T08:01:04;33.43;;;21.90;;
62798;SDS011;48842;51.046;13.796;2023-03-02T08:03:30;37.93;;;22.80;;
62798;SDS011;48842;51.046;13.796;2023-03-02T08:05:56;30.97;;;21.67;;
62798;SDS011;48842;51.046;13.796;2023-03-02T08:08:21;31.53;;;21.40;;
62798;SDS011;48842;51.046;13.796;2023-03-02T08:10:46;34.13;;;21.30;;
62798;SDS011;48842;51.046;13.796;2023-03-02T08:13:11;32.30;;;22.90;;
62798;SDS011;48842;51.046;13.796;2023-03-02T08:15:37;34.83;;;22.60;;
62798;SDS011;48842;51.046;13.796;2023-03-02T08:18:02;31.53;;;22.40;;
62798;SDS011;48842;51.046;13.796;2023-03-02T08:20:27;31.53;;;21.73;;
62798;SDS011;48842;51.046;13.796;2023-03-02T08:22:52;30.53;;;21.30;;
62798;SDS011;48842;51.046;13.796;2023-03-02T08:25:18;34.87;;;23.37;;
62798;SDS011;48842;51.046;13.796;2023-03-02T08:27:43;37.03;;;22.50;;
62798;SDS011;48842;51.046;13.796;2023-03-02T08:30:10;39.88;;;23.00;;
62798;SDS011;48842;51.046;13.796;2023-03-02T08:32:36;39.92;;;22.35;;
62798;SDS011;48842;51.046;13.796;2023-03-02T08:35:02;33.03;;;23.07;;
62798;SDS011;48842;51.046;13.796;2023-03-02T08:37:27;32.57;;;22.03;;
62798;SDS011;48842;51.046;13.796;2023-03-02T08:39:53;43.03;;;24.47;;
62798;SDS011;48842;51.046;13.796;2023-03-02T08:42:18;38.20;;;22.70;;
62798;SDS011;48842;51.046;13.796;2023-03-02T08:44:43;33.00;;;23.50;;
62798;SDS011;48842;51.046;13.796;2023-03-02T08:47:09;40.73;;;24.30;;
62798;SDS011;48842;51.046;13.796;2023-03-02T08:49:34;37.73;;;23.70;;
62798;SDS011;48842;51.046;13.796;2023-03-02T08:52:01;35.55;;;23.52;;
62798;SDS011;48842;51.046;13.796;2023-03-02T08:54:27;37.83;;;24.27;;
62798;SDS011;48842;51.046;13.796;2023-03-02T08:56:53;38.07;;;23.20;;
62798;SDS011;48842;51.046;13.796;2023-03-02T08:59:18;39.83;;;23.70;;
62798;SDS011;48842;51.046;13.796;2023-03-02T09:01:44;39.20;;;25.50;;
62798;SDS011;48842;51.046;13.796;2023-03-02T09:04:10;42.97;;;26.40;;
62798;SDS011;48842;51.046;13.796;2023-03-02T09:06:37;42.60;;;25.30;;
62798;SDS011;48842;51.046;13.796;2023-03-02T09:09:04;36.90;;;22.85;;
62798;SDS011;48842;51.046;13.796;2023-03-02T09:11:31;35.15;;;24.40;;
62798;SDS011;48842;51.046;13.796;2023-03-02T09:13:57;40.13;;;26.43;;
62798;SDS011;48842;51.046;13.796;2023-03-02T09:16:23;45.17;;;25.88;;
62798;SDS011;48842;51.046;13.796;2023-03-02T09:18:49;39.13;;;25.77;;
62798;SDS011;48842;51.046;13.796;2023-03-02T09:21:15;39.22;;;26.25;;
62798;SDS011;48842;51.046;13.796;2023-03-02T09:23:41;37.60;;;23.90;;
62798;SDS011;48842;51.046;13.796;2023-03-02T09:26:06;37.00;;;24.70;;
62798;SDS011;48842;51.046;13.796;2023-03-02T09:28:32;41.15;;;25.35;;
62798;SDS011;48842;51.046;13.796;2023-03-02T09:30:59;42.87;;;26.20;;
62798;SDS011;48842;51.046;13.796;2023-03-02T09:33:27;39.90;;;26.42;;
62798;SDS011;48842;51.046;13.796;2023-03-02T09:35:52;40.47;;;26.27;;
62798;SDS011;48842;51.046;13.796;2023-03-02T09:38:18;42.90;;;27.10;;
62798;SDS011;48842;51.046;13.796;2023-03-02T09:40:49;45.87;;;26.57;;
62798;SDS011;48842;51.046;13.796;2023-03-02T09:46:29;44.17;;;27.40;;
62798;SDS011;48842;51.046;13.796;2023-03-02T09:49:06;48.75;;;27.65;;
62798;SDS011;48842;51.046;13.796;2023-03-02T09:54:30;42.78;;;26.98;;
62798;SDS011;48842;51.046;13.796;2023-03-02T09:56:56;40.60;;;25.43;;
62798;SDS011;48842;51.046;13.796;2023-03-02T09:59:37;40.50;;;25.95;;
62798;SDS011;48842;51.046;13.796;2023-03-02T10:04:58;36.03;;;23.85;;
62798;SDS011;48842;51.046;13.796;2023-03-02T10:07:29;38.15;;;24.85;;
62798;SDS011;48842;51.046;13.796;2023-03-02T10:09:59;37.75;;;26.40;;
62798;SDS011;48842;51.046;13.796;2023-03-02T10:12:42;44.53;;;26.07;;
62798;SDS011;48842;51.046;13.796;2023-03-02T10:15:22;42.35;;;27.00;;
62798;SDS011;48842;51.046;13.796;2023-03-02T10:17:58;45.90;;;26.23;;
62798;SDS011;48842;51.046;13.796;2023-03-02T10:20:40;41.10;;;26.15;;
62798;SDS011;48842;51.046;13.796;2023-03-02T10:26:05;40.10;;;23.60;;
62798;SDS011;48842;51.046;13.796;2023-03-02T10:28:40;40.08;;;24.08;;
62798;SDS011;48842;51.046;13.796;2023-03-02T10:31:22;36.00;;;23.10;;
62798;SDS011;48842;51.046;13.796;2023-03-02T10:33:50;36.67;;;23.33;;
62798;SDS011;48842;51.046;13.796;2023-03-02T10:36:27;34.97;;;23.60;;
62798;SDS011;48842;51.046;13.796;2023-03-02T10:38:54;42.43;;;24.00;;
62798;SDS011;48842;51.046;13.796;2023-03-02T10:41:36;43.67;;;24.67;;
62798;SDS011;48842;51.046;13.796;2023-03-02T10:44:13;39.73;;;24.73;;
62798;SDS011;48842;51.046;13.796;2023-03-02T10:46:45;33.83;;;23.30;;
62798;SDS011;48842;51.046;13.796;2023-03-02T10:51:58;32.00;;;23.00;;
62798;SDS011;48842;51.046;13.796;2023-03-02T10:54:23;38.00;;;21.87;;
62798;SDS011;48842;51.046;13.796;2023-03-02T10:56:50;35.90;;;21.30;;
62798;SDS011;48842;51.046;13.796;2023-03-02T11:01:56;31.13;;;20.97;;
62798;SDS011;48842;51.046;13.796;2023-03-02T11:04:37;39.70;;;22.27;;
62798;SDS011;48842;51.046;13.796;2023-03-02T11:09:36;30.77;;;20.23;;
62798;SDS011;48842;51.046;13.796;2023-03-02T11:12:02;37.43;;;19.67;;
62798;SDS011;48842;51.046;13.796;2023-03-02T11:14:28;35.40;;;21.43;;
62798;SDS011;48842;51.046;13.796;2023-03-02T11:16:53;38.33;;;21.10;;
62798;SDS011;48842;51.046;13.796;2023-03-02T11:19:30;32.23;;;18.63;;
62798;SDS011;48842;51.046;13.796;2023-03-02T11:24:37;28.30;;;18.37;;
62798;SDS011;48842;51.046;13.796;2023-03-02T11:27:07;24.90;;;17.37;;
62798;SDS011;48842;51.046;13.796;2023-03-02T11:29:43;27.00;;;18.63;;
62798;SDS011;48842;51.046;13.796;2023-03-02T11:32:30;28.00;;;16.73;;
62798;SDS011;48842;51.046;13.796;2023-03-02T11:37:53;14.93;;;10.43;;
62798;SDS011;48842;51.046;13.796;2023-03-02T11:40:30;13.80;;;10.90;;
62798;SDS011;48842;51.046;13.796;2023-03-02T11:43:00;17.70;;;11.07;;
62798;SDS011;48842;51.046;13.796;2023-03-02T11:45:30;18.67;;;12.50;;
62798;SDS011;48842;51.046;13.796;2023-03-02T11:48:11;20.80;;;12.87;;
62798;SDS011;48842;51.046;13.796;2023-03-02T11:50:46;20.20;;;13.10;;
62798;SDS011;48842;51.046;13.796;2023-03-02T11:53:26;26.83;;;12.00;;
62798;SDS011;48842;51.046;13.796;2023-03-02T11:55:57;17.83;;;11.83;;
62798;SDS011;48842;51.046;13.796;2023-03-02T11:58:23;17.43;;;12.53;;
62798;SDS011;48842;51.046;13.796;2023-03-02T12:00:50;15.20;;;10.20;;
62798;SDS011;48842;51.046;13.796;2023-03-02T12:03:19;16.20;;;10.73;;
62798;SDS011;48842;51.046;13.796;2023-03-02T12:05:57;15.90;;;11.50;;
62798;SDS011;48842;51.046;13.796;2023-03-02T12:08:33;17.37;;;11.00;;
62798;SDS011;48842;51.046;13.796;2023-03-02T12:11:03;18.60;;;11.50;;
62798;SDS011;48842;51.046;13.796;2023-03-02T12:13:30;16.47;;;11.47;;
62798;SDS011;48842;51.046;13.796;2023-03-02T12:15:56;18.20;;;13.20;;
62798;SDS011;48842;51.046;13.796;2023-03-02T12:23:33;16.50;;;12.30;;
62798;SDS011;48842;51.046;13.796;2023-03-02T12:26:06;17.30;;;12.13;;
62798;SDS011;48842;51.046;13.796;2023-03-02T12:36:48;19.93;;;13.83;;
62798;SDS011;48842;51.046;13.796;2023-03-02T12:39:31;23.80;;;13.97;;
62798;SDS011;48842;51.046;13.796;2023-03-02T12:48:29;23.70;;;15.10;;
62798;SDS011;48842;51.046;13.796;2023-03-02T12:50:58;22.00;;;13.80;;
62798;SDS011;48842;51.046;13.796;2023-03-02T12:53:25;21.50;;;14.60;;
62798;SDS011;48842;51.046;13.796;2023-03-02T12:55:51;21.00;;;14.77;;
62798;SDS011;48842;51.046;13.796;2023-03-02T12:58:17;21.20;;;15.20;;
62798;SDS011;48842;51.046;13.796;2023-03-02T13:00:49;22.97;;;15.20;;
62798;SDS011;48842;51.046;13.796;2023-03-02T13:03:16;27.03;;;16.30;;
62798;SDS011;48842;51.046;13.796;2023-03-02T13:05:42;27.80;;;16.63;;
62798;SDS011;48842;51.046;13.796;2023-03-02T13:08:12;22.27;;;15.70;;
62798;SDS011;48842;51.046;13.796;2023-03-02T13:10:51;25.63;;;15.90;;
62798;SDS011;48842;51.046;13.796;2023-03-02T13:13:22;23.03;;;16.70;;
62798;SDS011;48842;51.046;13.796;2023-03-02T13:16:18;27.50;;;17.20;;
62798;SDS011;48842;51.046;13.796;2023-03-02T13:18:48;22.90;;;17.00;;
62798;SDS011;48842;51.046;13.796;2023-03-02T13:21:17;24.20;;;16.50;;
62798;SDS011;48842;51.046;13.796;2023-03-02T13:23:45;24.60;;;16.30;;
62798;SDS011;48842;51.046;13.796;2023-03-02T13:26:28;27.53;;;17.73;;
62798;SDS011;48842;51.046;13.796;2023-03-02T13:29:01;20.30;;;15.90;;
62798;SDS011;48842;51.046;13.796;2023-03-02T13:31:28;22.90;;;15.97;;
62798;SDS011;48842;51.046;13.796;2023-03-02T13:33:54;28.53;;;17.70;;
62798;SDS011;48842;51.046;13.796;2023-03-02T13:36:33;23.30;;;16.20;;
62798;SDS011;48842;51.046;13.796;2023-03-02T13:39:01;26.70;;;16.63;;
62798;SDS011;48842;51.046;13.796;2023-03-02T13:41:32;27.47;;;18.10;;
62798;SDS011;48842;51.046;13.796;2023-03-02T13:44:09;25.70;;;17.30;;
62798;SDS011;48842;51.046;13.796;2023-03-02T13:46:40;26.47;;;17.07;;
62798;SDS011;48842;51.046;13.796;2023-03-02T13:49:06;31.53;;;19.10;;
62798;SDS011;48842;51.046;13.796;2023-03-02T13:51:34;29.67;;;19.00;;
62798;SDS011;48842;51.046;13.796;2023-03-02T13:54:02;35.10;;;21.70;;
62798;SDS011;48842;51.046;13.796;2023-03-02T13:56:34;28.77;;;19.27;;
62798;SDS011;48842;51.046;13.796;2023-03-02T13:59:02;28.20;;;19.10;;
62798;SDS011;48842;51.046;13.796;2023-03-02T14:01:28;29.90;;;19.87;;
62798;SDS011;48842;51.046;13.796;2023-03-02T14:03:53;26.10;;;20.80;;
62798;SDS011;48842;51.046;13.796;2023-03-02T14:06:19;25.00;;;21.07;;
62798;SDS011;48842;51.046;13.796;2023-03-02T14:08:44;25.20;;;20.70;;
62798;SDS011;48842;51.046;13.796;2023-03-02T14:11:11;30.10;;;22.93;;
62798;SDS011;48842;51.046;13.796;2023-03-02T14:13:39;34.60;;;20.77;;
62798;SDS011;48842;51.046;13.796;2023-03-02T14:16:11;33.70;;;20.90;;
62798;SDS011;48842;51.046;13.796;2023-03-02T14:21:14;22.60;;;20.10;;
62798;SDS011;48842;51.046;13.796;2023-03-02T14:23:44;26.63;;;19.83;;
62798;SDS011;48842;51.046;13.796;2023-03-02T14:26:55;23.87;;;21.27;;
62798;SDS011;48842;51.046;13.796;2023-03-02T14:28:58;24.90;;;22.27;;
62798;SDS011;48842;51.046;13.796;2023-03-02T14:31:25;24.30;;;20.47;;
62798;SDS011;48842;51.046;13.796;2023-03-02T14:33:51;24.30;;;20.63;;
62798;SDS011;48842;51.046;13.796;2023-03-02T14:36:17;24.53;;;20.40;;
62798;SDS011;48842;51.046;13.796;2023-03-02T14:38:47;22.77;;;20.37;;
62798;SDS011;48842;51.046;13.796;2023-03-02T14:41:13;25.43;;;19.17;;
62798;SDS011;48842;51.046;13.796;2023-03-02T14:43:44;24.17;;;20.37;;
62798;SDS011;48842;51.046;13.796;2023-03-02T14:46:09;25.10;;;20.40;;
62798;SDS011;48842;51.046;13.796;2023-03-02T14:48:34;23.67;;;19.27;;
62798;SDS011;48842;51.046;13.796;2023-03-02T14:50:59;23.30;;;19.27;;
62798;SDS011;48842;51.046;13.796;2023-03-02T14:53:28;23.30;;;18.40;;
62798;SDS011;48842;51.046;13.796;2023-03-02T14:55:56;22.60;;;19.13;;
62798;SDS011;48842;51.046;13.796;2023-03-02T14:58:29;24.90;;;18.00;;
62798;SDS011;48842;51.046;13.796;2023-03-02T15:00:57;21.03;;;17.97;;
62798;SDS011;48842;51.046;13.796;2023-03-02T15:03:23;22.40;;;17.67;;
62798;SDS011;48842;51.046;13.796;2023-03-02T15:05:50;24.23;;;17.70;;
62798;SDS011;48842;51.046;13.796;2023-03-02T15:08:16;22.23;;;16.77;;